Champaign, IL (61825)

6:13 PM CST on December 07, 2016 (GMT -0600)
Indian Acres, Prospect Ave. and Kirby Ave. | | Change Station

Elev 758 ft 40.10 °N, 88.26 °W | Updated 1 minute ago

Overcast
Overcast
30.0 °F
Feels Like 30 °F
N
0.0
Wind Variable Wind from NW
Gusts 0.0 mph

Today
High -- | Low -- °F
--% Chance of Precip.
Yesterday
High -- | Low -- °F
Precip. -- in
Pressure 30.22 in
Visibility 10.0 miles
Clouds Mostly Cloudy 9500 ft
Overcast 11000 ft
Windchill 30 °F
Dew Point 25 °F
Humidity 82%
Rainfall 0.24 in
Snow Depth Not available.
7:02 AM 4:27 PM
First Quarter, 57% visible
METAR KCMI 072353Z 26010KT 10SM BKN095 OVC110 M01/M06 A3020 RMK AO2 SLP234 T10111056 10017 21011 53007
Pressure 30.22 in
Visibility 10.0 miles
Clouds Mostly Cloudy 9500 ft
Overcast 11000 ft
Windchill 30 °F
Dew Point 25 °F
Humidity 82%
Rainfall 0.24 in
Snow Depth Not available.
7:02 AM 4:27 PM
First Quarter, 57% visible
METAR KCMI 072353Z 26010KT 10SM BKN095 OVC110 M01/M06 A3020 RMK AO2 SLP234 T10111056 10017 21011 53007

10-Day Weather Forecast

Almanac

Astronomy

Dec. 07, 2016 Rise Set
Actual Time
Civil Twilight
Nautical Twilight
Astronomical Twilight
Moon
Length of Visible Light
Length of Day
Tomorrow will be .
, % of the Moon is Illuminated

Today's Extremes

State Highs State Lows

Community

WunderPhotos

Upload Photos

1,956,221 photos uploaded!

WunderBlog® & News

Nearby

Air Quality

  Air Quality AQ Index Pollutant
Not available.

Snow Depth

Station Depth Elevation

Earthquake Activity

City Distance Mag. Time & Date
Minimum magnitude displayed is 2.5.

Coastal Water Temperatures

Place Temperature

Stations

Nearby Weather Stations

Station Location Temp. Windchill Dew Point Humidity Wind Precip. Elev Updated Type
                   

Watches & Warnings

There are currently no watches in effect.